createdAt,value
2022-08-22T00:01:33.741Z,99.90
2022-08-22T00:02:47.663Z,99.90
2022-08-22T00:02:53.828Z,99.90
2022-08-22T00:02:58.170Z,99.90
2022-08-22T00:03:01.015Z,99.90
2022-08-22T00:04:09.047Z,99.90
2022-08-22T00:06:45.192Z,99.90
2022-08-22T00:09:29.358Z,99.90
2022-08-22T00:12:12.111Z,99.90
2022-08-22T00:14:46.872Z,99.90
2022-08-22T00:17:32.701Z,99.90
2022-08-22T00:20:07.983Z,99.90
2022-08-22T00:22:43.649Z,99.90
2022-08-22T00:25:27.762Z,99.90
2022-08-22T00:28:00.274Z,99.90
2022-08-22T00:30:30.241Z,99.90
2022-08-22T00:33:02.698Z,99.90
2022-08-22T00:35:36.313Z,99.90
2022-08-22T00:38:10.641Z,99.90
2022-08-22T00:40:56.698Z,99.90
2022-08-22T00:43:49.412Z,99.90
2022-08-22T00:46:40.413Z,99.90
2022-08-22T00:49:24.343Z,99.90
2022-08-22T00:52:26.780Z,99.90
2022-08-22T00:55:11.521Z,99.90
2022-08-22T00:57:54.951Z,99.90
2022-08-22T01:00:24.688Z,99.90
2022-08-22T01:03:23.859Z,99.90
2022-08-22T01:06:08.024Z,99.90
2022-08-22T01:08:53.247Z,99.90
2022-08-22T01:11:47.857Z,99.90
2022-08-22T01:14:35.147Z,99.90
2022-08-22T01:17:23.197Z,99.90
2022-08-22T01:20:33.883Z,99.90
2022-08-22T01:23:30.833Z,99.90
2022-08-22T01:26:27.684Z,99.90
2022-08-22T01:29:29.725Z,99.90
2022-08-22T01:32:47.674Z,99.90
2022-08-22T01:35:36.902Z,99.90
2022-08-22T01:38:35.399Z,99.90
2022-08-22T01:41:22.825Z,99.90
2022-08-22T01:44:09.500Z,99.90
2022-08-22T01:46:49.972Z,99.90
2022-08-22T01:49:23.969Z,99.90
2022-08-22T01:52:00.486Z,99.90
2022-08-22T01:54:42.774Z,99.90
2022-08-22T01:57:11.797Z,99.90
2022-08-22T01:59:42.842Z,99.90
2022-08-22T02:02:46.452Z,99.90
2022-08-22T02:05:24.870Z,99.90
2022-08-22T02:08:01.426Z,99.90
2022-08-22T02:10:46.356Z,99.90
2022-08-22T02:13:30.985Z,99.90
2022-08-22T02:16:09.739Z,99.90
2022-08-22T02:18:57.353Z,99.90
2022-08-22T02:21:43.592Z,99.90
2022-08-22T02:24:30.297Z,99.90
2022-08-22T02:27:12.833Z,99.90
2022-08-22T02:29:47.700Z,99.90
2022-08-22T02:32:27.329Z,99.90
2022-08-22T02:35:03.647Z,99.90
2022-08-22T02:37:37.833Z,99.90
2022-08-22T02:40:13.484Z,99.90
2022-08-22T02:42:46.677Z,99.90
2022-08-22T02:45:25.593Z,99.90
2022-08-22T02:48:02.051Z,99.90
2022-08-22T02:50:38.999Z,99.90
2022-08-22T02:53:13.170Z,99.90
2022-08-22T02:55:49.116Z,99.90
2022-08-22T02:58:26.066Z,99.90
2022-08-22T03:01:34.273Z,99.90
2022-08-22T03:04:26.802Z,99.90
2022-08-22T03:07:07.864Z,99.90
2022-08-22T03:09:41.132Z,99.90
2022-08-22T03:12:20.673Z,99.90
2022-08-22T03:14:59.474Z,99.90
2022-08-22T03:17:32.527Z,99.90
2022-08-22T03:20:06.185Z,99.90
2022-08-22T03:22:44.590Z,99.90
2022-08-22T03:25:23.809Z,99.90
2022-08-22T03:28:00.162Z,99.90
2022-08-22T03:30:35.008Z,99.90
2022-08-22T03:33:17.675Z,99.90
2022-08-22T03:36:10.278Z,99.90
2022-08-22T03:39:03.645Z,99.90
2022-08-22T03:41:57.281Z,99.90
2022-08-22T03:44:55.442Z,99.90
2022-08-22T03:47:46.470Z,99.90
2022-08-22T03:50:38.978Z,99.90
2022-08-22T03:53:45.338Z,99.90
2022-08-22T03:56:41.868Z,99.90
2022-08-22T03:59:42.593Z,99.90
2022-08-22T04:03:03.846Z,99.90
2022-08-22T04:06:03.838Z,99.90
2022-08-22T04:09:13.371Z,99.90
2022-08-22T04:12:04.844Z,99.90
2022-08-22T04:14:51.764Z,99.90
2022-08-22T04:17:50.620Z,99.90
2022-08-22T04:20:43.622Z,99.90
2022-08-22T04:23:44.778Z,99.90
2022-08-22T04:26:17.082Z,99.90
2022-08-22T04:28:50.075Z,99.90
2022-08-22T04:31:24.828Z,99.90
2022-08-22T04:34:01.555Z,99.90
2022-08-22T04:36:36.190Z,99.90
2022-08-22T04:39:10.692Z,99.90
2022-08-22T04:41:48.164Z,99.90
2022-08-22T04:44:23.097Z,99.90
2022-08-22T04:46:58.890Z,99.90
2022-08-22T04:49:35.630Z,99.90
2022-08-22T04:52:13.563Z,99.90
2022-08-22T04:54:56.876Z,99.90
2022-08-22T04:57:32.137Z,99.90
2022-08-22T05:00:00.950Z,99.90
2022-08-22T05:02:29.314Z,99.90
2022-08-22T05:05:04.833Z,99.90
2022-08-22T05:07:47.241Z,99.90
2022-08-22T05:10:25.506Z,99.90
2022-08-22T05:12:57.951Z,99.90
2022-08-22T05:15:31.425Z,99.90
2022-08-22T05:18:05.029Z,99.90
2022-08-22T05:20:38.022Z,99.90
2022-08-22T05:23:17.371Z,99.90
2022-08-22T05:25:48.335Z,99.90
2022-08-22T05:28:31.300Z,99.90
2022-08-22T05:30:59.929Z,99.90
2022-08-22T05:33:31.429Z,99.90
2022-08-22T05:36:05.255Z,99.90
2022-08-22T05:38:36.890Z,99.90
2022-08-22T05:41:09.182Z,99.90
2022-08-22T05:43:40.185Z,99.90
2022-08-22T05:46:13.526Z,99.90
2022-08-22T05:48:44.548Z,99.90
2022-08-22T05:51:21.373Z,99.90
2022-08-22T05:53:55.177Z,99.90
2022-08-22T05:56:33.139Z,99.90
2022-08-22T05:59:09.820Z,99.90
2022-08-22T06:01:44.552Z,99.90
2022-08-22T06:04:19.002Z,99.90
2022-08-22T06:06:56.052Z,99.90
2022-08-22T06:09:35.740Z,99.90
2022-08-22T06:12:18.171Z,99.90
2022-08-22T06:14:58.990Z,99.90
2022-08-22T06:17:30.150Z,99.90
2022-08-22T06:20:00.045Z,99.90
2022-08-22T06:22:36.587Z,99.90
2022-08-22T06:25:09.776Z,99.90
2022-08-22T06:27:38.267Z,99.90
2022-08-22T06:30:08.894Z,99.90
2022-08-22T06:32:59.139Z,99.90
2022-08-22T06:35:51.525Z,99.90
2022-08-22T06:38:21.860Z,99.90
2022-08-22T06:40:50.868Z,99.90
2022-08-22T06:43:19.579Z,99.90
2022-08-22T06:45:48.567Z,99.90
2022-08-22T06:48:22.653Z,99.90
2022-08-22T06:50:57.182Z,99.90
2022-08-22T06:53:30.694Z,99.90
2022-08-22T06:56:02.656Z,99.90
2022-08-22T06:58:34.353Z,99.90
2022-08-22T07:01:12.239Z,99.90
2022-08-22T07:03:45.076Z,99.90
2022-08-22T07:06:16.862Z,99.90
2022-08-22T07:08:47.398Z,99.90
2022-08-22T07:11:18.657Z,99.90
2022-08-22T07:13:54.093Z,99.90
2022-08-22T07:16:31.002Z,99.90
2022-08-22T07:18:59.181Z,99.90
2022-08-22T07:21:29.564Z,99.90
2022-08-22T07:24:01.972Z,99.90
2022-08-22T07:26:40.277Z,99.90
2022-08-22T07:29:17.106Z,99.90
2022-08-22T07:31:54.941Z,99.90
2022-08-22T07:34:38.259Z,99.90
2022-08-22T07:37:11.862Z,99.90
2022-08-22T07:39:51.149Z,99.90
2022-08-22T07:42:29.748Z,99.90
2022-08-22T07:45:06.927Z,99.90
2022-08-22T07:47:52.176Z,99.90
2022-08-22T07:50:25.149Z,99.90
2022-08-22T07:52:54.407Z,99.90
2022-08-22T07:55:25.733Z,99.90
2022-08-22T07:57:57.217Z,99.90
2022-08-22T08:00:27.013Z,99.90
2022-08-22T08:02:58.236Z,99.90
2022-08-22T08:05:29.433Z,99.90
2022-08-22T08:07:58.193Z,99.90
2022-08-22T08:10:33.485Z,99.90
2022-08-22T08:13:05.818Z,99.90
2022-08-22T08:15:39.109Z,99.90
2022-08-22T08:18:13.298Z,99.90
2022-08-22T08:20:41.785Z,99.90
2022-08-22T08:23:12.692Z,99.90
2022-08-22T08:25:55.418Z,99.90
2022-08-22T08:28:37.626Z,99.90
2022-08-22T08:31:15.809Z,99.90
2022-08-22T08:33:48.446Z,99.90
2022-08-22T08:36:33.162Z,99.90
2022-08-22T08:39:12.543Z,99.90
2022-08-22T08:42:19.240Z,99.90
2022-08-22T08:45:14.081Z,99.90
2022-08-22T08:48:06.658Z,99.90
2022-08-22T08:50:50.177Z,99.90
2022-08-22T08:53:50.818Z,99.90
2022-08-22T08:56:27.126Z,99.90
2022-08-22T08:59:10.287Z,99.90
2022-08-22T09:02:06.854Z,99.90
2022-08-22T09:05:14.686Z,99.90
2022-08-22T09:07:56.693Z,99.90
2022-08-22T09:10:41.091Z,99.90
2022-08-22T09:13:40.911Z,99.90
2022-08-22T09:16:35.998Z,99.90
2022-08-22T09:19:30.686Z,99.90
2022-08-22T09:22:23.288Z,99.90
2022-08-22T09:25:15.855Z,99.90
2022-08-22T09:27:50.063Z,99.90
2022-08-22T09:30:27.646Z,99.90
2022-08-22T09:33:02.232Z,99.90
2022-08-22T09:35:39.249Z,99.90
2022-08-22T09:38:34.641Z,99.90
2022-08-22T09:41:14.564Z,99.90
2022-08-22T09:43:49.081Z,99.90
2022-08-22T09:46:21.875Z,99.90
2022-08-22T09:49:05.590Z,99.90
2022-08-22T09:51:40.480Z,99.90
2022-08-22T09:54:18.785Z,99.90
2022-08-22T09:57:10.220Z,99.90
2022-08-22T09:59:58.049Z,99.90
2022-08-22T10:02:34.470Z,99.90
2022-08-22T10:05:13.141Z,99.90
2022-08-22T10:08:19.822Z,99.90
2022-08-22T10:11:07.000Z,99.90
2022-08-22T10:13:46.277Z,99.90
2022-08-22T10:16:26.030Z,99.90
2022-08-22T10:19:08.230Z,99.90
2022-08-22T10:21:43.006Z,99.90
2022-08-22T10:24:25.312Z,99.90
2022-08-22T10:26:56.669Z,99.90
2022-08-22T10:29:48.028Z,99.90
2022-08-22T10:32:30.661Z,99.90
2022-08-22T10:35:06.300Z,99.90
2022-08-22T10:37:46.039Z,99.90
2022-08-22T10:40:19.294Z,99.90
2022-08-22T10:42:53.793Z,99.90
2022-08-22T10:45:35.986Z,99.90
2022-08-22T10:48:28.642Z,99.90
2022-08-22T10:51:08.763Z,99.90
2022-08-22T10:53:54.349Z,99.90
2022-08-22T10:56:30.185Z,99.90
2022-08-22T10:59:12.185Z,99.90
2022-08-22T11:01:48.149Z,99.90
2022-08-22T11:04:37.765Z,99.90
2022-08-22T11:07:21.843Z,99.90
2022-08-22T11:09:58.644Z,99.90
2022-08-22T11:12:35.808Z,99.90
2022-08-22T11:15:10.197Z,99.90
2022-08-22T11:18:12.984Z,99.90
2022-08-22T11:20:51.263Z,99.90
2022-08-22T11:23:31.682Z,99.90
2022-08-22T11:26:12.465Z,99.90
2022-08-22T11:29:13.747Z,99.90
2022-08-22T11:31:52.131Z,99.90
2022-08-22T11:34:32.188Z,99.90
2022-08-22T11:37:11.797Z,99.90
2022-08-22T11:39:48.126Z,99.90
2022-08-22T11:42:26.477Z,99.90
2022-08-22T11:45:00.000Z,98.50
2022-08-22T11:47:33.050Z,99.90
2022-08-22T11:50:13.483Z,99.90
2022-08-22T11:53:08.418Z,99.90
2022-08-22T11:55:44.175Z,99.90
2022-08-22T11:58:29.030Z,99.90
2022-08-22T12:01:03.245Z,99.90
2022-08-22T12:03:46.530Z,99.90
2022-08-22T12:06:39.315Z,99.90
2022-08-22T12:09:21.461Z,99.90
2022-08-22T12:12:11.689Z,99.90
2022-08-22T12:14:46.274Z,99.90
2022-08-22T12:17:51.072Z,99.90
2022-08-22T12:20:27.151Z,99.90
2022-08-22T12:23:43.265Z,99.90
2022-08-22T12:26:22.138Z,98.60
2022-08-22T12:29:04.512Z,97.90
2022-08-22T12:32:34.148Z,97.40
2022-08-22T12:35:20.752Z,96.70
2022-08-22T12:38:11.610Z,95.80
2022-08-22T12:41:12.759Z,96.40
2022-08-22T12:43:53.602Z,99.10
2022-08-22T12:46:36.006Z,97.40
2022-08-22T12:49:22.917Z,99.80
2022-08-22T12:52:08.908Z,95.30
2022-08-22T12:55:05.576Z,96.00
2022-08-22T12:57:50.465Z,96.20
2022-08-22T13:00:31.867Z,98.60
2022-08-22T13:03:04.011Z,96.10
2022-08-22T13:05:40.907Z,95.80
2022-08-22T13:08:17.477Z,99.60
2022-08-22T13:10:48.808Z,95.20
2022-08-22T13:13:31.772Z,99.20
2022-08-22T13:16:08.320Z,95.20
2022-08-22T13:18:44.779Z,98.70
2022-08-22T13:21:17.416Z,94.60
2022-08-22T13:23:56.189Z,98.20
2022-08-22T13:26:34.384Z,97.20
2022-08-22T13:29:25.038Z,97.00
2022-08-22T13:31:58.296Z,95.30
2022-08-22T13:34:39.490Z,96.30
2022-08-22T13:37:12.421Z,95.10
2022-08-22T13:39:44.772Z,95.60
2022-08-22T13:42:29.706Z,93.50
2022-08-22T13:45:02.602Z,93.10
2022-08-22T13:47:34.471Z,93.60
2022-08-22T13:50:11.084Z,95.10
2022-08-22T13:52:45.881Z,96.80
2022-08-22T13:55:30.144Z,95.70
2022-08-22T13:58:06.700Z,97.30
2022-08-22T14:01:16.714Z,97.60
2022-08-22T14:03:49.083Z,95.60
2022-08-22T14:06:37.263Z,95.10
2022-08-22T14:09:29.629Z,97.60
2022-08-22T14:12:12.009Z,95.40
2022-08-22T14:14:43.528Z,97.00
2022-08-22T14:17:17.936Z,97.30
2022-08-22T14:19:53.023Z,95.00
2022-08-22T14:22:35.164Z,96.20
2022-08-22T14:25:07.560Z,98.10
2022-08-22T14:27:40.268Z,95.70
2022-08-22T14:30:16.011Z,96.20
2022-08-22T14:32:50.376Z,95.50
2022-08-22T14:35:29.196Z,95.50
2022-08-22T14:38:27.373Z,93.00
2022-08-22T14:41:03.261Z,95.60
2022-08-22T14:43:50.513Z,95.00
2022-08-22T14:46:26.547Z,92.30
2022-08-22T14:49:31.515Z,93.10
2022-08-22T14:52:08.844Z,93.70
2022-08-22T14:54:38.727Z,91.40
2022-08-22T14:57:12.779Z,91.70
2022-08-22T14:59:52.172Z,91.80
2022-08-22T15:02:28.338Z,93.40
2022-08-22T15:04:57.682Z,93.90
2022-08-22T15:07:27.874Z,92.50
2022-08-22T15:10:03.017Z,92.60
2022-08-22T15:12:34.737Z,92.50
2022-08-22T15:15:11.290Z,92.40
2022-08-22T15:17:44.305Z,96.00
2022-08-22T15:20:27.934Z,94.50
2022-08-22T15:22:59.154Z,95.50
2022-08-22T15:25:32.589Z,93.00
2022-08-22T15:28:06.102Z,94.00
2022-08-22T15:30:44.561Z,93.60
2022-08-22T15:33:16.924Z,93.30
2022-08-22T15:35:48.423Z,96.70
2022-08-22T15:38:27.887Z,96.00
2022-08-22T15:40:56.912Z,94.60
2022-08-22T15:43:34.855Z,94.60
2022-08-22T15:46:19.313Z,94.30
2022-08-22T15:48:57.131Z,94.90
2022-08-22T15:51:40.164Z,96.90
2022-08-22T15:54:25.063Z,95.40
2022-08-22T15:57:16.547Z,95.90
2022-08-22T15:59:54.733Z,97.50
2022-08-22T16:02:34.859Z,97.10
2022-08-22T16:05:22.106Z,96.20
2022-08-22T16:08:02.604Z,96.40
2022-08-22T16:10:38.438Z,96.70
2022-08-22T16:13:16.431Z,96.40
2022-08-22T16:16:00.856Z,96.10
2022-08-22T16:19:05.802Z,97.30
2022-08-22T16:22:19.292Z,98.60
2022-08-22T16:25:14.174Z,94.90
2022-08-22T16:27:55.065Z,95.40
2022-08-22T16:30:37.010Z,95.50
2022-08-22T16:33:06.933Z,94.90
2022-08-22T16:36:23.358Z,96.70
2022-08-22T16:38:54.680Z,93.80
2022-08-22T16:41:30.149Z,93.80
2022-08-22T16:44:13.932Z,94.90
2022-08-22T16:46:45.895Z,94.00
2022-08-22T16:49:26.761Z,94.80
2022-08-22T16:52:27.793Z,95.80
2022-08-22T16:54:58.768Z,93.70
2022-08-22T16:57:38.933Z,93.30
2022-08-22T17:00:30.321Z,94.10
2022-08-22T17:03:16.135Z,92.90
2022-08-22T17:05:54.278Z,92.10
2022-08-22T17:08:37.249Z,94.00
2022-08-22T17:11:18.234Z,91.80
2022-08-22T17:14:09.681Z,91.90
2022-08-22T17:16:53.914Z,91.70
2022-08-22T17:19:36.173Z,91.60
2022-08-22T17:22:11.339Z,92.80
2022-08-22T17:24:46.509Z,92.40
2022-08-22T17:27:21.699Z,94.20
2022-08-22T17:30:09.129Z,93.40
2022-08-22T17:32:59.733Z,97.30
2022-08-22T17:35:39.704Z,92.40
2022-08-22T17:38:22.176Z,92.60
2022-08-22T17:41:03.468Z,92.20
2022-08-22T17:43:53.629Z,92.60
2022-08-22T17:46:33.104Z,92.20
2022-08-22T17:49:10.582Z,92.70
2022-08-22T17:51:47.105Z,94.50
2022-08-22T17:54:20.450Z,92.70
2022-08-22T17:57:00.295Z,93.70
2022-08-22T17:59:39.713Z,93.10
2022-08-22T18:02:16.177Z,95.90
2022-08-22T18:04:50.097Z,94.10
2022-08-22T18:07:50.352Z,99.50
2022-08-22T18:10:28.992Z,95.60
2022-08-22T18:13:06.902Z,99.80
2022-08-22T18:15:42.075Z,99.90
2022-08-22T18:18:21.095Z,95.10
2022-08-22T18:20:56.894Z,95.60
2022-08-22T18:23:36.183Z,99.90
2022-08-22T18:26:21.364Z,98.50
2022-08-22T18:28:55.147Z,99.90
2022-08-22T18:31:38.423Z,99.90
2022-08-22T18:34:16.433Z,99.90
2022-08-22T18:36:53.176Z,99.90
2022-08-22T18:39:28.714Z,99.90
2022-08-22T18:42:02.963Z,99.90
2022-08-22T18:44:34.244Z,99.90
2022-08-22T18:47:12.754Z,99.90
2022-08-22T18:49:48.994Z,99.90
2022-08-22T18:52:32.598Z,99.90
2022-08-22T18:55:28.203Z,99.90
2022-08-22T18:58:12.604Z,99.90
2022-08-22T19:01:07.968Z,99.90
2022-08-22T19:03:54.273Z,99.90
2022-08-22T19:06:43.874Z,99.90
2022-08-22T19:10:06.874Z,99.90
2022-08-22T19:12:53.485Z,99.90
2022-08-22T19:15:36.343Z,99.90
2022-08-22T19:18:27.909Z,99.90
2022-08-22T19:21:39.533Z,99.90
2022-08-22T19:24:12.047Z,99.90
2022-08-22T19:26:47.657Z,99.90
2022-08-22T19:29:55.330Z,99.90
2022-08-22T19:33:01.430Z,99.90
2022-08-22T19:35:38.472Z,99.90
2022-08-22T19:38:08.359Z,99.90
2022-08-22T19:40:58.458Z,99.90
2022-08-22T19:43:34.146Z,99.90
2022-08-22T19:46:05.276Z,99.90
2022-08-22T19:48:44.366Z,99.90
2022-08-22T19:51:24.451Z,99.90
2022-08-22T19:54:07.501Z,99.90
2022-08-22T19:56:53.988Z,99.90
2022-08-22T19:59:31.433Z,99.90
2022-08-22T20:02:08.521Z,99.90
2022-08-22T20:05:04.796Z,99.90
2022-08-22T20:07:47.059Z,99.90
2022-08-22T20:10:25.362Z,99.90
2022-08-22T20:13:05.388Z,99.90
2022-08-22T20:15:57.764Z,99.90
2022-08-22T20:19:06.669Z,99.90
2022-08-22T20:21:55.593Z,99.90
2022-08-22T20:24:30.577Z,99.90
2022-08-22T20:27:13.891Z,99.90
2022-08-22T20:29:50.957Z,99.90
2022-08-22T20:32:22.934Z,99.90
2022-08-22T20:34:56.806Z,99.90
2022-08-22T20:37:45.448Z,99.90
2022-08-22T20:40:55.324Z,99.90
2022-08-22T20:43:18.136Z,99.90
2022-08-22T20:46:01.177Z,99.90
2022-08-22T20:48:36.874Z,99.90
2022-08-22T20:51:06.027Z,99.90
2022-08-22T20:53:35.436Z,99.90
2022-08-22T20:56:06.938Z,99.90
2022-08-22T20:58:38.759Z,99.90
2022-08-22T21:01:11.946Z,99.90
2022-08-22T21:03:44.204Z,99.90
2022-08-22T21:06:14.471Z,99.90
2022-08-22T21:08:43.398Z,99.90
2022-08-22T21:11:33.868Z,99.90
2022-08-22T21:14:17.699Z,99.90
2022-08-22T21:16:46.874Z,99.90
2022-08-22T21:19:19.436Z,99.90
2022-08-22T21:21:47.357Z,99.90
2022-08-22T21:24:15.198Z,99.90
2022-08-22T21:27:01.637Z,99.90
2022-08-22T21:29:32.867Z,99.90
2022-08-22T21:32:22.785Z,99.90
2022-08-22T21:34:51.790Z,99.90
2022-08-22T21:37:28.300Z,99.90
2022-08-22T21:40:01.361Z,99.90
2022-08-22T21:42:33.624Z,99.90
2022-08-22T21:45:03.527Z,99.90
2022-08-22T21:47:34.944Z,99.90
2022-08-22T21:50:18.549Z,99.90
2022-08-22T21:53:03.195Z,99.90
2022-08-22T21:55:34.813Z,99.90
2022-08-22T21:58:11.993Z,99.90
2022-08-22T22:00:48.716Z,99.90
2022-08-22T22:03:23.552Z,99.90
2022-08-22T22:05:52.818Z,99.90
2022-08-22T22:08:20.596Z,99.90
2022-08-22T22:10:50.360Z,99.90
2022-08-22T22:13:21.242Z,99.90
2022-08-22T22:15:53.769Z,99.90
2022-08-22T22:18:25.317Z,99.90
2022-08-22T22:20:55.651Z,99.90
2022-08-22T22:23:24.369Z,99.90
2022-08-22T22:25:54.050Z,99.90
2022-08-22T22:28:24.963Z,99.90
2022-08-22T22:30:53.974Z,99.90
2022-08-22T22:33:25.198Z,99.90
2022-08-22T22:35:55.289Z,99.90
2022-08-22T22:38:24.422Z,99.90
2022-08-22T22:40:52.726Z,99.90
2022-08-22T22:43:20.670Z,99.90
2022-08-22T22:45:48.590Z,99.90
2022-08-22T22:48:24.338Z,99.90
2022-08-22T22:50:54.630Z,99.90
2022-08-22T22:53:33.858Z,99.90
2022-08-22T22:56:07.589Z,99.90
2022-08-22T23:01:15.825Z,99.90
2022-08-22T23:03:44.125Z,99.90
2022-08-22T23:06:16.623Z,99.90
2022-08-22T23:08:44.831Z,99.90
2022-08-22T23:11:13.930Z,99.90
2022-08-22T23:13:42.894Z,99.90
2022-08-22T23:16:13.309Z,99.90
2022-08-22T23:18:41.599Z,99.90
2022-08-22T23:21:15.872Z,99.90
2022-08-22T23:23:44.105Z,99.90
2022-08-22T23:26:12.631Z,99.90
2022-08-22T23:28:41.137Z,99.90
2022-08-22T23:31:13.953Z,99.90
2022-08-22T23:33:42.176Z,99.90
2022-08-22T23:36:17.181Z,99.90
2022-08-22T23:38:46.147Z,99.90
2022-08-22T23:41:17.540Z,99.90
2022-08-22T23:43:47.897Z,99.90
2022-08-22T23:46:16.981Z,99.90
2022-08-22T23:48:45.125Z,99.90
2022-08-22T23:51:15.856Z,99.90
2022-08-22T23:53:45.337Z,99.90
2022-08-22T23:56:19.541Z,99.90
2022-08-22T23:58:49.284Z,99.90
